sensor_id;sensor_type;location;lat;lon;timestamp;P1;durP1;ratioP1;P2;durP2;ratioP2
32333;SDS011;18810;53.040;8.850;2023-04-29T00:00:31;107.75;;;64.10;;
32333;SDS011;18810;53.040;8.850;2023-04-29T00:02:56;112.82;;;66.22;;
32333;SDS011;18810;53.040;8.850;2023-04-29T00:05:22;125.10;;;71.55;;
32333;SDS011;18810;53.040;8.850;2023-04-29T00:07:48;114.80;;;68.85;;
32333;SDS011;18810;53.040;8.850;2023-04-29T00:10:13;132.27;;;75.20;;
32333;SDS011;18810;53.040;8.850;2023-04-29T00:12:40;134.60;;;74.93;;
32333;SDS011;18810;53.040;8.850;2023-04-29T00:15:06;135.75;;;75.32;;
32333;SDS011;18810;53.040;8.850;2023-04-29T00:17:33;144.23;;;78.45;;
32333;SDS011;18810;53.040;8.850;2023-04-29T00:19:58;154.45;;;80.75;;
32333;SDS011;18810;53.040;8.850;2023-04-29T00:22:24;147.32;;;79.93;;
32333;SDS011;18810;53.040;8.850;2023-04-29T00:24:50;144.45;;;76.95;;
32333;SDS011;18810;53.040;8.850;2023-04-29T00:27:17;151.90;;;79.88;;
32333;SDS011;18810;53.040;8.850;2023-04-29T00:29:43;145.48;;;78.55;;
32333;SDS011;18810;53.040;8.850;2023-04-29T00:32:08;139.15;;;76.65;;
32333;SDS011;18810;53.040;8.850;2023-04-29T00:34:34;141.13;;;75.80;;
32333;SDS011;18810;53.040;8.850;2023-04-29T00:37:00;146.40;;;78.03;;
32333;SDS011;18810;53.040;8.850;2023-04-29T00:39:26;137.10;;;74.82;;
32333;SDS011;18810;53.040;8.850;2023-04-29T00:41:51;138.32;;;75.03;;
32333;SDS011;18810;53.040;8.850;2023-04-29T00:44:17;138.77;;;75.75;;
32333;SDS011;18810;53.040;8.850;2023-04-29T00:46:43;144.77;;;74.10;;
32333;SDS011;18810;53.040;8.850;2023-04-29T00:49:09;122.65;;;67.97;;
32333;SDS011;18810;53.040;8.850;2023-04-29T00:51:36;124.15;;;67.80;;
32333;SDS011;18810;53.040;8.850;2023-04-29T00:54:04;124.28;;;65.75;;
32333;SDS011;18810;53.040;8.850;2023-04-29T00:56:33;110.15;;;61.78;;
32333;SDS011;18810;53.040;8.850;2023-04-29T00:59:01;104.18;;;62.00;;
32333;SDS011;18810;53.040;8.850;2023-04-29T01:01:28;100.65;;;59.83;;
32333;SDS011;18810;53.040;8.850;2023-04-29T01:03:54;96.60;;;58.75;;
32333;SDS011;18810;53.040;8.850;2023-04-29T01:14:53;92.43;;;54.80;;
32333;SDS011;18810;53.040;8.850;2023-04-29T01:17:27;96.18;;;53.80;;
32333;SDS011;18810;53.040;8.850;2023-04-29T01:20:01;90.78;;;54.03;;
32333;SDS011;18810;53.040;8.850;2023-04-29T01:22:28;94.13;;;56.35;;
32333;SDS011;18810;53.040;8.850;2023-04-29T01:24:54;98.00;;;55.30;;
32333;SDS011;18810;53.040;8.850;2023-04-29T01:27:23;96.18;;;55.38;;
32333;SDS011;18810;53.040;8.850;2023-04-29T01:33:09;94.43;;;54.97;;
32333;SDS011;18810;53.040;8.850;2023-04-29T01:40:19;90.05;;;50.95;;
32333;SDS011;18810;53.040;8.850;2023-04-29T01:42:54;89.15;;;51.55;;
32333;SDS011;18810;53.040;8.850;2023-04-29T01:45:28;83.80;;;50.22;;
32333;SDS011;18810;53.040;8.850;2023-04-29T01:47:56;80.35;;;50.08;;
32333;SDS011;18810;53.040;8.850;2023-04-29T01:50:23;80.47;;;47.40;;
32333;SDS011;18810;53.040;8.850;2023-04-29T01:52:50;76.82;;;46.92;;
32333;SDS011;18810;53.040;8.850;2023-04-29T01:55:16;80.75;;;47.47;;
32333;SDS011;18810;53.040;8.850;2023-04-29T01:57:42;72.65;;;45.58;;
32333;SDS011;18810;53.040;8.850;2023-04-29T02:00:08;78.68;;;45.17;;
32333;SDS011;18810;53.040;8.850;2023-04-29T02:02:35;69.78;;;44.20;;
32333;SDS011;18810;53.040;8.850;2023-04-29T02:05:01;80.25;;;46.88;;
32333;SDS011;18810;53.040;8.850;2023-04-29T02:07:27;79.15;;;46.97;;
32333;SDS011;18810;53.040;8.850;2023-04-29T02:09:53;70.28;;;45.30;;
32333;SDS011;18810;53.040;8.850;2023-04-29T02:12:18;73.18;;;43.90;;
32333;SDS011;18810;53.040;8.850;2023-04-29T02:14:44;66.45;;;41.10;;
32333;SDS011;18810;53.040;8.850;2023-04-29T02:17:12;69.35;;;44.03;;
32333;SDS011;18810;53.040;8.850;2023-04-29T02:19:38;69.25;;;41.67;;
32333;SDS011;18810;53.040;8.850;2023-04-29T02:22:04;72.13;;;43.83;;
32333;SDS011;18810;53.040;8.850;2023-04-29T02:24:30;71.22;;;42.58;;
32333;SDS011;18810;53.040;8.850;2023-04-29T02:26:56;66.10;;;41.92;;
32333;SDS011;18810;53.040;8.850;2023-04-29T02:29:23;65.88;;;40.30;;
32333;SDS011;18810;53.040;8.850;2023-04-29T02:31:50;72.68;;;40.45;;
32333;SDS011;18810;53.040;8.850;2023-04-29T02:34:16;67.85;;;40.20;;
32333;SDS011;18810;53.040;8.850;2023-04-29T02:36:42;69.07;;;40.58;;
32333;SDS011;18810;53.040;8.850;2023-04-29T02:39:07;67.28;;;40.58;;
32333;SDS011;18810;53.040;8.850;2023-04-29T02:41:33;72.38;;;41.95;;
32333;SDS011;18810;53.040;8.850;2023-04-29T02:43:59;75.88;;;41.65;;
32333;SDS011;18810;53.040;8.850;2023-04-29T02:46:24;70.90;;;39.78;;
32333;SDS011;18810;53.040;8.850;2023-04-29T02:48:50;69.10;;;40.85;;
32333;SDS011;18810;53.040;8.850;2023-04-29T02:51:16;69.40;;;40.42;;
32333;SDS011;18810;53.040;8.850;2023-04-29T02:53:41;65.28;;;40.17;;
32333;SDS011;18810;53.040;8.850;2023-04-29T02:56:08;64.47;;;37.83;;
32333;SDS011;18810;53.040;8.850;2023-04-29T02:58:33;65.70;;;39.00;;
32333;SDS011;18810;53.040;8.850;2023-04-29T03:00:59;59.67;;;37.53;;
32333;SDS011;18810;53.040;8.850;2023-04-29T03:03:25;63.13;;;37.30;;
32333;SDS011;18810;53.040;8.850;2023-04-29T03:05:51;64.70;;;38.53;;
32333;SDS011;18810;53.040;8.850;2023-04-29T03:08:16;63.28;;;37.00;;
32333;SDS011;18810;53.040;8.850;2023-04-29T03:10:42;63.10;;;38.25;;
32333;SDS011;18810;53.040;8.850;2023-04-29T03:13:08;63.58;;;38.28;;
32333;SDS011;18810;53.040;8.850;2023-04-29T03:15:34;65.25;;;37.60;;
32333;SDS011;18810;53.040;8.850;2023-04-29T03:18:00;60.30;;;36.53;;
32333;SDS011;18810;53.040;8.850;2023-04-29T03:20:28;66.63;;;37.20;;
32333;SDS011;18810;53.040;8.850;2023-04-29T03:22:54;57.95;;;36.35;;
32333;SDS011;18810;53.040;8.850;2023-04-29T03:25:20;55.33;;;34.53;;
32333;SDS011;18810;53.040;8.850;2023-04-29T03:27:45;58.97;;;35.85;;
32333;SDS011;18810;53.040;8.850;2023-04-29T03:30:11;64.50;;;37.10;;
32333;SDS011;18810;53.040;8.850;2023-04-29T03:32:37;60.17;;;36.28;;
32333;SDS011;18810;53.040;8.850;2023-04-29T03:35:03;61.35;;;35.28;;
32333;SDS011;18810;53.040;8.850;2023-04-29T03:37:29;61.15;;;36.70;;
32333;SDS011;18810;53.040;8.850;2023-04-29T03:39:55;62.95;;;36.78;;
32333;SDS011;18810;53.040;8.850;2023-04-29T03:42:20;59.00;;;35.00;;
32333;SDS011;18810;53.040;8.850;2023-04-29T03:44:46;62.03;;;35.92;;
32333;SDS011;18810;53.040;8.850;2023-04-29T03:47:12;67.45;;;36.20;;
32333;SDS011;18810;53.040;8.850;2023-04-29T03:49:37;73.28;;;37.17;;
32333;SDS011;18810;53.040;8.850;2023-04-29T03:52:03;59.75;;;34.67;;
32333;SDS011;18810;53.040;8.850;2023-04-29T03:54:30;65.65;;;36.42;;
32333;SDS011;18810;53.040;8.850;2023-04-29T03:56:56;63.63;;;35.38;;
32333;SDS011;18810;53.040;8.850;2023-04-29T03:59:22;64.38;;;34.03;;
32333;SDS011;18810;53.040;8.850;2023-04-29T04:01:48;56.80;;;34.53;;
32333;SDS011;18810;53.040;8.850;2023-04-29T04:04:13;58.97;;;34.22;;
32333;SDS011;18810;53.040;8.850;2023-04-29T04:06:39;57.85;;;32.85;;
32333;SDS011;18810;53.040;8.850;2023-04-29T04:09:05;59.22;;;34.08;;
32333;SDS011;18810;53.040;8.850;2023-04-29T04:11:32;59.75;;;35.15;;
32333;SDS011;18810;53.040;8.850;2023-04-29T04:13:57;61.45;;;34.63;;
32333;SDS011;18810;53.040;8.850;2023-04-29T04:16:23;59.60;;;35.08;;
32333;SDS011;18810;53.040;8.850;2023-04-29T04:18:49;57.58;;;34.25;;
32333;SDS011;18810;53.040;8.850;2023-04-29T04:21:14;55.58;;;33.15;;
32333;SDS011;18810;53.040;8.850;2023-04-29T04:23:40;60.97;;;36.03;;
32333;SDS011;18810;53.040;8.850;2023-04-29T04:26:06;59.80;;;35.72;;
32333;SDS011;18810;53.040;8.850;2023-04-29T04:28:32;60.60;;;35.70;;
32333;SDS011;18810;53.040;8.850;2023-04-29T04:30:58;56.53;;;34.58;;
32333;SDS011;18810;53.040;8.850;2023-04-29T04:33:24;62.72;;;34.50;;
32333;SDS011;18810;53.040;8.850;2023-04-29T04:35:50;58.45;;;34.10;;
32333;SDS011;18810;53.040;8.850;2023-04-29T04:38:16;56.33;;;35.00;;
32333;SDS011;18810;53.040;8.850;2023-04-29T04:40:41;60.33;;;35.00;;
32333;SDS011;18810;53.040;8.850;2023-04-29T04:43:08;56.50;;;33.25;;
32333;SDS011;18810;53.040;8.850;2023-04-29T04:45:34;56.35;;;34.03;;
32333;SDS011;18810;53.040;8.850;2023-04-29T04:48:00;59.08;;;35.17;;
32333;SDS011;18810;53.040;8.850;2023-04-29T04:50:27;61.70;;;35.20;;
32333;SDS011;18810;53.040;8.850;2023-04-29T04:52:56;53.42;;;34.20;;
32333;SDS011;18810;53.040;8.850;2023-04-29T04:55:23;55.65;;;35.63;;
32333;SDS011;18810;53.040;8.850;2023-04-29T04:57:49;57.00;;;35.70;;
32333;SDS011;18810;53.040;8.850;2023-04-29T05:00:14;53.30;;;33.35;;
32333;SDS011;18810;53.040;8.850;2023-04-29T05:02:40;59.85;;;35.50;;
32333;SDS011;18810;53.040;8.850;2023-04-29T05:05:06;52.15;;;33.78;;
32333;SDS011;18810;53.040;8.850;2023-04-29T05:07:33;58.40;;;36.00;;
32333;SDS011;18810;53.040;8.850;2023-04-29T05:10:02;58.03;;;36.00;;
32333;SDS011;18810;53.040;8.850;2023-04-29T05:12:28;55.40;;;34.28;;
32333;SDS011;18810;53.040;8.850;2023-04-29T05:14:57;54.30;;;34.50;;
32333;SDS011;18810;53.040;8.850;2023-04-29T05:17:22;54.97;;;35.03;;
32333;SDS011;18810;53.040;8.850;2023-04-29T05:19:48;55.95;;;35.33;;
32333;SDS011;18810;53.040;8.850;2023-04-29T05:22:14;61.50;;;36.15;;
32333;SDS011;18810;53.040;8.850;2023-04-29T05:24:39;60.35;;;36.75;;
32333;SDS011;18810;53.040;8.850;2023-04-29T05:27:05;57.75;;;36.28;;
32333;SDS011;18810;53.040;8.850;2023-04-29T05:29:31;54.97;;;35.30;;
32333;SDS011;18810;53.040;8.850;2023-04-29T05:31:56;61.40;;;36.40;;
32333;SDS011;18810;53.040;8.850;2023-04-29T05:34:23;56.92;;;36.67;;
32333;SDS011;18810;53.040;8.850;2023-04-29T05:36:48;54.10;;;35.08;;
32333;SDS011;18810;53.040;8.850;2023-04-29T05:39:14;60.67;;;36.22;;
32333;SDS011;18810;53.040;8.850;2023-04-29T05:41:41;61.53;;;36.58;;
32333;SDS011;18810;53.040;8.850;2023-04-29T05:44:07;53.92;;;35.03;;
32333;SDS011;18810;53.040;8.850;2023-04-29T05:46:33;57.97;;;36.58;;
32333;SDS011;18810;53.040;8.850;2023-04-29T05:48:58;58.65;;;35.35;;
32333;SDS011;18810;53.040;8.850;2023-04-29T05:51:24;57.92;;;34.78;;
32333;SDS011;18810;53.040;8.850;2023-04-29T05:53:52;58.90;;;36.17;;
32333;SDS011;18810;53.040;8.850;2023-04-29T05:56:18;55.13;;;34.60;;
32333;SDS011;18810;53.040;8.850;2023-04-29T05:58:44;54.03;;;33.65;;
32333;SDS011;18810;53.040;8.850;2023-04-29T06:01:10;51.83;;;34.53;;
32333;SDS011;18810;53.040;8.850;2023-04-29T06:03:36;51.03;;;33.03;;
32333;SDS011;18810;53.040;8.850;2023-04-29T06:06:01;52.85;;;33.33;;
32333;SDS011;18810;53.040;8.850;2023-04-29T06:08:27;48.58;;;32.08;;
32333;SDS011;18810;53.040;8.850;2023-04-29T06:10:53;50.20;;;33.13;;
32333;SDS011;18810;53.040;8.850;2023-04-29T06:13:19;47.17;;;30.95;;
32333;SDS011;18810;53.040;8.850;2023-04-29T06:15:45;50.95;;;31.70;;
32333;SDS011;18810;53.040;8.850;2023-04-29T06:18:11;48.63;;;29.33;;
32333;SDS011;18810;53.040;8.850;2023-04-29T06:20:37;46.78;;;31.00;;
32333;SDS011;18810;53.040;8.850;2023-04-29T06:23:03;43.95;;;29.40;;
32333;SDS011;18810;53.040;8.850;2023-04-29T06:25:29;45.45;;;29.90;;
32333;SDS011;18810;53.040;8.850;2023-04-29T06:27:58;44.10;;;28.65;;
32333;SDS011;18810;53.040;8.850;2023-04-29T06:30:24;52.00;;;28.83;;
32333;SDS011;18810;53.040;8.850;2023-04-29T06:32:50;43.70;;;28.58;;
32333;SDS011;18810;53.040;8.850;2023-04-29T06:35:17;39.72;;;27.77;;
32333;SDS011;18810;53.040;8.850;2023-04-29T06:37:43;41.92;;;28.20;;
32333;SDS011;18810;53.040;8.850;2023-04-29T06:40:09;42.10;;;28.05;;
32333;SDS011;18810;53.040;8.850;2023-04-29T06:42:35;41.17;;;27.58;;
32333;SDS011;18810;53.040;8.850;2023-04-29T06:45:01;46.38;;;28.48;;
32333;SDS011;18810;53.040;8.850;2023-04-29T06:47:27;47.38;;;28.58;;
32333;SDS011;18810;53.040;8.850;2023-04-29T06:49:53;47.88;;;30.08;;
32333;SDS011;18810;53.040;8.850;2023-04-29T06:52:19;45.72;;;29.58;;
32333;SDS011;18810;53.040;8.850;2023-04-29T06:54:44;41.58;;;27.90;;
32333;SDS011;18810;53.040;8.850;2023-04-29T06:57:10;39.22;;;27.55;;
32333;SDS011;18810;53.040;8.850;2023-04-29T06:59:36;39.38;;;26.35;;
32333;SDS011;18810;53.040;8.850;2023-04-29T07:02:02;42.05;;;27.67;;
32333;SDS011;18810;53.040;8.850;2023-04-29T07:04:27;35.83;;;24.45;;
32333;SDS011;18810;53.040;8.850;2023-04-29T07:06:54;41.33;;;25.88;;
32333;SDS011;18810;53.040;8.850;2023-04-29T07:09:20;40.97;;;25.85;;
32333;SDS011;18810;53.040;8.850;2023-04-29T07:11:47;38.42;;;24.23;;
32333;SDS011;18810;53.040;8.850;2023-04-29T07:14:13;35.78;;;23.98;;
32333;SDS011;18810;53.040;8.850;2023-04-29T07:16:40;35.10;;;22.98;;
32333;SDS011;18810;53.040;8.850;2023-04-29T07:19:05;33.92;;;22.35;;
32333;SDS011;18810;53.040;8.850;2023-04-29T07:21:31;32.63;;;22.30;;
32333;SDS011;18810;53.040;8.850;2023-04-29T07:23:57;31.98;;;20.90;;
32333;SDS011;18810;53.040;8.850;2023-04-29T07:26:25;35.42;;;21.13;;
32333;SDS011;18810;53.040;8.850;2023-04-29T07:28:50;31.20;;;20.85;;
32333;SDS011;18810;53.040;8.850;2023-04-29T07:31:16;31.08;;;20.80;;
32333;SDS011;18810;53.040;8.850;2023-04-29T07:33:42;33.25;;;20.48;;
32333;SDS011;18810;53.040;8.850;2023-04-29T07:36:09;35.08;;;21.48;;
32333;SDS011;18810;53.040;8.850;2023-04-29T07:38:35;30.02;;;20.27;;
32333;SDS011;18810;53.040;8.850;2023-04-29T07:41:01;31.42;;;18.95;;
32333;SDS011;18810;53.040;8.850;2023-04-29T07:43:28;29.25;;;19.00;;
32333;SDS011;18810;53.040;8.850;2023-04-29T07:45:54;29.73;;;18.30;;
32333;SDS011;18810;53.040;8.850;2023-04-29T07:48:20;26.65;;;17.85;;
32333;SDS011;18810;53.040;8.850;2023-04-29T07:50:46;26.40;;;17.67;;
32333;SDS011;18810;53.040;8.850;2023-04-29T07:53:12;28.77;;;17.55;;
32333;SDS011;18810;53.040;8.850;2023-04-29T07:55:38;26.27;;;15.70;;
32333;SDS011;18810;53.040;8.850;2023-04-29T07:58:04;45.63;;;21.90;;
32333;SDS011;18810;53.040;8.850;2023-04-29T08:00:29;23.17;;;15.02;;
32333;SDS011;18810;53.040;8.850;2023-04-29T08:02:55;24.10;;;16.60;;
32333;SDS011;18810;53.040;8.850;2023-04-29T08:05:21;23.75;;;15.48;;
32333;SDS011;18810;53.040;8.850;2023-04-29T08:07:48;22.75;;;15.43;;
32333;SDS011;18810;53.040;8.850;2023-04-29T08:10:14;20.50;;;14.25;;
32333;SDS011;18810;53.040;8.850;2023-04-29T08:12:41;23.27;;;14.55;;
32333;SDS011;18810;53.040;8.850;2023-04-29T08:15:09;20.75;;;13.52;;
32333;SDS011;18810;53.040;8.850;2023-04-29T08:17:35;19.67;;;13.32;;
32333;SDS011;18810;53.040;8.850;2023-04-29T08:20:01;16.95;;;12.48;;
32333;SDS011;18810;53.040;8.850;2023-04-29T08:22:27;20.10;;;11.68;;
32333;SDS011;18810;53.040;8.850;2023-04-29T08:24:52;19.77;;;12.40;;
32333;SDS011;18810;53.040;8.850;2023-04-29T08:27:18;19.10;;;12.77;;
32333;SDS011;18810;53.040;8.850;2023-04-29T08:29:45;20.42;;;12.07;;
32333;SDS011;18810;53.040;8.850;2023-04-29T08:32:11;20.70;;;11.60;;
32333;SDS011;18810;53.040;8.850;2023-04-29T08:34:37;20.48;;;11.52;;
32333;SDS011;18810;53.040;8.850;2023-04-29T08:37:03;17.65;;;10.95;;
32333;SDS011;18810;53.040;8.850;2023-04-29T08:39:29;16.55;;;11.20;;
32333;SDS011;18810;53.040;8.850;2023-04-29T08:41:55;14.80;;;11.10;;
32333;SDS011;18810;53.040;8.850;2023-04-29T08:44:22;16.60;;;11.90;;
32333;SDS011;18810;53.040;8.850;2023-04-29T08:46:49;18.27;;;11.55;;
32333;SDS011;18810;53.040;8.850;2023-04-29T08:49:15;16.17;;;11.43;;
32333;SDS011;18810;53.040;8.850;2023-04-29T08:51:41;14.73;;;11.15;;
32333;SDS011;18810;53.040;8.850;2023-04-29T08:54:06;15.25;;;11.23;;
32333;SDS011;18810;53.040;8.850;2023-04-29T08:56:32;16.35;;;11.35;;
32333;SDS011;18810;53.040;8.850;2023-04-29T08:58:58;14.35;;;11.38;;
32333;SDS011;18810;53.040;8.850;2023-04-29T09:01:27;18.73;;;11.52;;
32333;SDS011;18810;53.040;8.850;2023-04-29T09:04:11;15.23;;;10.90;;
32333;SDS011;18810;53.040;8.850;2023-04-29T09:06:56;14.45;;;10.02;;
32333;SDS011;18810;53.040;8.850;2023-04-29T09:09:23;14.20;;;10.25;;
32333;SDS011;18810;53.040;8.850;2023-04-29T09:11:49;16.75;;;10.45;;
32333;SDS011;18810;53.040;8.850;2023-04-29T09:14:14;16.30;;;10.48;;
32333;SDS011;18810;53.040;8.850;2023-04-29T09:16:40;16.20;;;10.05;;
32333;SDS011;18810;53.040;8.850;2023-04-29T09:19:06;14.10;;;10.15;;
32333;SDS011;18810;53.040;8.850;2023-04-29T09:21:32;17.58;;;10.75;;
32333;SDS011;18810;53.040;8.850;2023-04-29T09:23:58;14.57;;;9.77;;
32333;SDS011;18810;53.040;8.850;2023-04-29T09:26:25;14.27;;;10.38;;
32333;SDS011;18810;53.040;8.850;2023-04-29T09:29:04;13.77;;;10.38;;
32333;SDS011;18810;53.040;8.850;2023-04-29T09:31:42;14.65;;;10.40;;
32333;SDS011;18810;53.040;8.850;2023-04-29T09:34:08;15.02;;;10.13;;
32333;SDS011;18810;53.040;8.850;2023-04-29T09:36:38;13.48;;;9.35;;
32333;SDS011;18810;53.040;8.850;2023-04-29T09:39:15;14.48;;;9.82;;
32333;SDS011;18810;53.040;8.850;2023-04-29T09:44:21;16.10;;;10.68;;
32333;SDS011;18810;53.040;8.850;2023-04-29T09:46:57;16.63;;;11.05;;
32333;SDS011;18810;53.040;8.850;2023-04-29T09:49:27;14.15;;;10.75;;
32333;SDS011;18810;53.040;8.850;2023-04-29T09:51:55;17.70;;;11.45;;
32333;SDS011;18810;53.040;8.850;2023-04-29T09:54:22;14.25;;;10.10;;
32333;SDS011;18810;53.040;8.850;2023-04-29T09:56:50;13.05;;;9.88;;
32333;SDS011;18810;53.040;8.850;2023-04-29T09:59:20;15.55;;;11.02;;
32333;SDS011;18810;53.040;8.850;2023-04-29T10:01:47;11.43;;;9.53;;
32333;SDS011;18810;53.040;8.850;2023-04-29T10:04:18;17.02;;;11.30;;
32333;SDS011;18810;53.040;8.850;2023-04-29T10:06:45;15.27;;;9.73;;
32333;SDS011;18810;53.040;8.850;2023-04-29T10:09:14;12.65;;;10.15;;
32333;SDS011;18810;53.040;8.850;2023-04-29T10:11:41;14.88;;;10.02;;
32333;SDS011;18810;53.040;8.850;2023-04-29T10:14:11;13.95;;;10.45;;
32333;SDS011;18810;53.040;8.850;2023-04-29T10:16:46;14.45;;;10.00;;
32333;SDS011;18810;53.040;8.850;2023-04-29T10:19:17;14.13;;;10.32;;
32333;SDS011;18810;53.040;8.850;2023-04-29T10:21:48;13.98;;;10.63;;
32333;SDS011;18810;53.040;8.850;2023-04-29T10:24:16;12.95;;;10.63;;
32333;SDS011;18810;53.040;8.850;2023-04-29T10:26:43;14.95;;;10.32;;
32333;SDS011;18810;53.040;8.850;2023-04-29T10:29:10;14.10;;;10.00;;
32333;SDS011;18810;53.040;8.850;2023-04-29T10:31:38;15.13;;;9.73;;
32333;SDS011;18810;53.040;8.850;2023-04-29T10:34:07;11.00;;;9.07;;
32333;SDS011;18810;53.040;8.850;2023-04-29T10:36:33;13.57;;;9.63;;
32333;SDS011;18810;53.040;8.850;2023-04-29T10:39:02;11.98;;;9.75;;
32333;SDS011;18810;53.040;8.850;2023-04-29T10:41:51;17.52;;;9.80;;
32333;SDS011;18810;53.040;8.850;2023-04-29T10:44:16;13.40;;;9.65;;
32333;SDS011;18810;53.040;8.850;2023-04-29T10:46:42;13.40;;;10.23;;
32333;SDS011;18810;53.040;8.850;2023-04-29T10:49:07;13.43;;;9.50;;
32333;SDS011;18810;53.040;8.850;2023-04-29T10:51:42;15.23;;;10.00;;
32333;SDS011;18810;53.040;8.850;2023-04-29T10:56:39;13.40;;;9.38;;
32333;SDS011;18810;53.040;8.850;2023-04-29T10:59:15;11.73;;;8.90;;
32333;SDS011;18810;53.040;8.850;2023-04-29T11:01:52;13.82;;;9.52;;
32333;SDS011;18810;53.040;8.850;2023-04-29T11:04:19;12.93;;;9.23;;
32333;SDS011;18810;53.040;8.850;2023-04-29T11:06:46;10.15;;;8.13;;
32333;SDS011;18810;53.040;8.850;2023-04-29T11:11:55;12.80;;;7.80;;
32333;SDS011;18810;53.040;8.850;2023-04-29T11:14:31;11.18;;;8.35;;
32333;SDS011;18810;53.040;8.850;2023-04-29T11:17:13;11.18;;;8.10;;
32333;SDS011;18810;53.040;8.850;2023-04-29T11:19:41;13.02;;;7.75;;
32333;SDS011;18810;53.040;8.850;2023-04-29T11:24:52;10.70;;;7.28;;
32333;SDS011;18810;53.040;8.850;2023-04-29T11:27:19;8.60;;;6.18;;
32333;SDS011;18810;53.040;8.850;2023-04-29T11:29:49;10.82;;;7.13;;
32333;SDS011;18810;53.040;8.850;2023-04-29T11:32:19;10.30;;;7.60;;
32333;SDS011;18810;53.040;8.850;2023-04-29T11:34:46;11.35;;;7.28;;
32333;SDS011;18810;53.040;8.850;2023-04-29T11:37:11;8.80;;;7.03;;
32333;SDS011;18810;53.040;8.850;2023-04-29T11:39:37;9.90;;;6.50;;
32333;SDS011;18810;53.040;8.850;2023-04-29T11:42:06;7.95;;;6.18;;
32333;SDS011;18810;53.040;8.850;2023-04-29T11:44:32;8.95;;;7.13;;
32333;SDS011;18810;53.040;8.850;2023-04-29T11:47:06;8.30;;;6.57;;
32333;SDS011;18810;53.040;8.850;2023-04-29T11:49:32;9.68;;;6.55;;
32333;SDS011;18810;53.040;8.850;2023-04-29T11:51:59;9.15;;;6.60;;
32333;SDS011;18810;53.040;8.850;2023-04-29T11:54:25;10.73;;;6.32;;
32333;SDS011;18810;53.040;8.850;2023-04-29T11:56:54;8.52;;;6.47;;
32333;SDS011;18810;53.040;8.850;2023-04-29T11:59:21;10.15;;;6.65;;
32333;SDS011;18810;53.040;8.850;2023-04-29T12:01:48;6.43;;;5.72;;
32333;SDS011;18810;53.040;8.850;2023-04-29T12:04:14;9.55;;;5.13;;
32333;SDS011;18810;53.040;8.850;2023-04-29T12:06:40;7.43;;;5.70;;
32333;SDS011;18810;53.040;8.850;2023-04-29T12:09:06;9.88;;;5.97;;
32333;SDS011;18810;53.040;8.850;2023-04-29T12:11:32;8.30;;;5.85;;
32333;SDS011;18810;53.040;8.850;2023-04-29T12:13:59;8.00;;;5.40;;
32333;SDS011;18810;53.040;8.850;2023-04-29T12:16:27;8.15;;;5.45;;
32333;SDS011;18810;53.040;8.850;2023-04-29T12:18:54;8.57;;;5.20;;
32333;SDS011;18810;53.040;8.850;2023-04-29T12:21:20;8.13;;;5.63;;
32333;SDS011;18810;53.040;8.850;2023-04-29T12:23:47;6.05;;;4.75;;
32333;SDS011;18810;53.040;8.850;2023-04-29T12:26:13;9.75;;;5.82;;
32333;SDS011;18810;53.040;8.850;2023-04-29T12:28:42;8.85;;;5.57;;
32333;SDS011;18810;53.040;8.850;2023-04-29T12:31:08;9.70;;;5.97;;
32333;SDS011;18810;53.040;8.850;2023-04-29T12:33:35;7.18;;;5.43;;
32333;SDS011;18810;53.040;8.850;2023-04-29T12:36:01;7.47;;;5.00;;
32333;SDS011;18810;53.040;8.850;2023-04-29T12:38:29;9.52;;;5.07;;
32333;SDS011;18810;53.040;8.850;2023-04-29T12:40:56;6.97;;;5.28;;
32333;SDS011;18810;53.040;8.850;2023-04-29T12:43:27;9.60;;;6.15;;
32333;SDS011;18810;53.040;8.850;2023-04-29T12:46:03;7.63;;;6.20;;
32333;SDS011;18810;53.040;8.850;2023-04-29T12:48:31;9.05;;;6.03;;
32333;SDS011;18810;53.040;8.850;2023-04-29T12:50:59;8.38;;;5.28;;
32333;SDS011;18810;53.040;8.850;2023-04-29T12:53:25;8.63;;;5.80;;
32333;SDS011;18810;53.040;8.850;2023-04-29T12:55:53;7.70;;;5.60;;
32333;SDS011;18810;53.040;8.850;2023-04-29T12:58:18;8.65;;;5.55;;
32333;SDS011;18810;53.040;8.850;2023-04-29T13:00:44;6.82;;;6.13;;
32333;SDS011;18810;53.040;8.850;2023-04-29T13:03:10;12.73;;;6.65;;
32333;SDS011;18810;53.040;8.850;2023-04-29T13:05:35;8.10;;;6.07;;
32333;SDS011;18810;53.040;8.850;2023-04-29T13:08:01;9.82;;;5.57;;
32333;SDS011;18810;53.040;8.850;2023-04-29T13:10:30;8.77;;;5.47;;
32333;SDS011;18810;53.040;8.850;2023-04-29T13:12:55;8.32;;;5.55;;
32333;SDS011;18810;53.040;8.850;2023-04-29T13:15:21;12.13;;;6.80;;
32333;SDS011;18810;53.040;8.850;2023-04-29T13:17:47;6.80;;;5.60;;
32333;SDS011;18810;53.040;8.850;2023-04-29T13:20:12;12.00;;;5.68;;
32333;SDS011;18810;53.040;8.850;2023-04-29T13:22:39;7.68;;;5.28;;
32333;SDS011;18810;53.040;8.850;2023-04-29T13:25:07;8.45;;;5.32;;
32333;SDS011;18810;53.040;8.850;2023-04-29T13:27:34;10.45;;;6.30;;
32333;SDS011;18810;53.040;8.850;2023-04-29T13:29:59;8.18;;;4.60;;
32333;SDS011;18810;53.040;8.850;2023-04-29T13:32:25;5.20;;;4.50;;
32333;SDS011;18810;53.040;8.850;2023-04-29T13:34:51;7.70;;;4.20;;
32333;SDS011;18810;53.040;8.850;2023-04-29T13:37:17;6.03;;;3.90;;
32333;SDS011;18810;53.040;8.850;2023-04-29T13:39:43;6.25;;;3.70;;
32333;SDS011;18810;53.040;8.850;2023-04-29T13:42:09;7.07;;;3.70;;
32333;SDS011;18810;53.040;8.850;2023-04-29T13:44:35;7.60;;;4.15;;
32333;SDS011;18810;53.040;8.850;2023-04-29T13:47:01;4.97;;;2.95;;
32333;SDS011;18810;53.040;8.850;2023-04-29T13:49:28;6.22;;;3.13;;
32333;SDS011;18810;53.040;8.850;2023-04-29T13:51:53;7.72;;;3.05;;
32333;SDS011;18810;53.040;8.850;2023-04-29T13:54:19;5.13;;;2.83;;
32333;SDS011;18810;53.040;8.850;2023-04-29T13:56:48;5.68;;;3.00;;
32333;SDS011;18810;53.040;8.850;2023-04-29T13:59:14;6.28;;;2.53;;
32333;SDS011;18810;53.040;8.850;2023-04-29T14:01:39;4.70;;;3.25;;
32333;SDS011;18810;53.040;8.850;2023-04-29T14:04:05;5.95;;;2.80;;
32333;SDS011;18810;53.040;8.850;2023-04-29T14:06:31;4.07;;;2.70;;
32333;SDS011;18810;53.040;8.850;2023-04-29T14:08:58;5.75;;;2.65;;
32333;SDS011;18810;53.040;8.850;2023-04-29T14:11:24;3.83;;;2.72;;
32333;SDS011;18810;53.040;8.850;2023-04-29T14:13:50;4.80;;;3.17;;
32333;SDS011;18810;53.040;8.850;2023-04-29T14:16:15;4.60;;;2.78;;
32333;SDS011;18810;53.040;8.850;2023-04-29T14:18:41;4.28;;;3.13;;
32333;SDS011;18810;53.040;8.850;2023-04-29T14:21:07;4.40;;;2.88;;
32333;SDS011;18810;53.040;8.850;2023-04-29T14:23:33;4.82;;;3.08;;
32333;SDS011;18810;53.040;8.850;2023-04-29T14:25:58;4.60;;;3.08;;
32333;SDS011;18810;53.040;8.850;2023-04-29T14:28:24;4.13;;;2.58;;
32333;SDS011;18810;53.040;8.850;2023-04-29T14:30:50;4.53;;;2.58;;
32333;SDS011;18810;53.040;8.850;2023-04-29T14:33:16;3.50;;;2.35;;
32333;SDS011;18810;53.040;8.850;2023-04-29T14:35:41;5.65;;;2.83;;
32333;SDS011;18810;53.040;8.850;2023-04-29T14:38:07;4.53;;;2.65;;
32333;SDS011;18810;53.040;8.850;2023-04-29T14:40:33;3.28;;;2.92;;
32333;SDS011;18810;53.040;8.850;2023-04-29T14:42:58;7.43;;;3.33;;
32333;SDS011;18810;53.040;8.850;2023-04-29T14:45:25;4.68;;;3.50;;
32333;SDS011;18810;53.040;8.850;2023-04-29T14:47:52;5.00;;;2.85;;
32333;SDS011;18810;53.040;8.850;2023-04-29T14:50:17;2.58;;;2.38;;
32333;SDS011;18810;53.040;8.850;2023-04-29T14:52:43;6.25;;;3.10;;